sensor_id;sensor_type;location;lat;lon;timestamp;P1;durP1;ratioP1;P2;durP2;ratioP2
38851;SDS011;24605;50.092;9.182;2023-08-21T00:01:22;9.90;;;4.60;;
38851;SDS011;24605;50.092;9.182;2023-08-21T00:03:48;8.40;;;4.75;;
38851;SDS011;24605;50.092;9.182;2023-08-21T00:06:15;9.00;;;4.90;;
38851;SDS011;24605;50.092;9.182;2023-08-21T00:08:41;9.05;;;5.13;;
38851;SDS011;24605;50.092;9.182;2023-08-21T00:11:08;7.78;;;5.13;;
38851;SDS011;24605;50.092;9.182;2023-08-21T00:13:35;8.55;;;5.07;;
38851;SDS011;24605;50.092;9.182;2023-08-21T00:16:01;9.73;;;4.85;;
38851;SDS011;24605;50.092;9.182;2023-08-21T00:18:29;7.85;;;4.70;;
38851;SDS011;24605;50.092;9.182;2023-08-21T00:20:55;8.75;;;4.72;;
38851;SDS011;24605;50.092;9.182;2023-08-21T00:23:22;7.40;;;4.82;;
38851;SDS011;24605;50.092;9.182;2023-08-21T00:25:48;7.57;;;5.00;;
38851;SDS011;24605;50.092;9.182;2023-08-21T00:28:15;8.13;;;4.82;;
38851;SDS011;24605;50.092;9.182;2023-08-21T00:30:42;7.10;;;4.75;;
38851;SDS011;24605;50.092;9.182;2023-08-21T00:33:08;7.65;;;4.90;;
38851;SDS011;24605;50.092;9.182;2023-08-21T00:35:36;9.70;;;5.00;;
38851;SDS011;24605;50.092;9.182;2023-08-21T00:38:03;7.00;;;4.93;;
38851;SDS011;24605;50.092;9.182;2023-08-21T00:40:30;8.15;;;4.88;;
38851;SDS011;24605;50.092;9.182;2023-08-21T00:42:57;6.32;;;4.60;;
38851;SDS011;24605;50.092;9.182;2023-08-21T00:45:23;8.52;;;5.13;;
38851;SDS011;24605;50.092;9.182;2023-08-21T00:47:50;6.60;;;4.88;;
38851;SDS011;24605;50.092;9.182;2023-08-21T00:50:17;7.60;;;5.00;;
38851;SDS011;24605;50.092;9.182;2023-08-21T00:52:45;7.65;;;5.10;;
38851;SDS011;24605;50.092;9.182;2023-08-21T00:55:13;7.85;;;5.28;;
38851;SDS011;24605;50.092;9.182;2023-08-21T00:57:39;8.95;;;5.40;;
38851;SDS011;24605;50.092;9.182;2023-08-21T01:00:07;7.80;;;5.22;;
38851;SDS011;24605;50.092;9.182;2023-08-21T01:02:36;8.95;;;5.70;;
38851;SDS011;24605;50.092;9.182;2023-08-21T01:05:02;10.32;;;5.93;;
38851;SDS011;24605;50.092;9.182;2023-08-21T01:07:30;8.13;;;5.55;;
38851;SDS011;24605;50.092;9.182;2023-08-21T01:10:00;8.38;;;5.30;;
38851;SDS011;24605;50.092;9.182;2023-08-21T01:12:35;7.68;;;5.20;;
38851;SDS011;24605;50.092;9.182;2023-08-21T01:15:07;8.15;;;5.22;;
38851;SDS011;24605;50.092;9.182;2023-08-21T01:17:35;8.98;;;5.63;;
38851;SDS011;24605;50.092;9.182;2023-08-21T01:20:03;8.75;;;5.60;;
38851;SDS011;24605;50.092;9.182;2023-08-21T01:22:34;10.20;;;5.80;;
38851;SDS011;24605;50.092;9.182;2023-08-21T01:25:04;13.00;;;6.18;;
38851;SDS011;24605;50.092;9.182;2023-08-21T01:27:30;14.60;;;6.32;;
38851;SDS011;24605;50.092;9.182;2023-08-21T01:29:58;10.00;;;6.20;;
38851;SDS011;24605;50.092;9.182;2023-08-21T01:32:27;8.57;;;6.00;;
38851;SDS011;24605;50.092;9.182;2023-08-21T01:34:57;8.82;;;5.70;;
38851;SDS011;24605;50.092;9.182;2023-08-21T01:37:25;8.13;;;5.88;;
38851;SDS011;24605;50.092;9.182;2023-08-21T01:39:54;9.85;;;5.50;;
38851;SDS011;24605;50.092;9.182;2023-08-21T01:42:25;8.25;;;5.97;;
38851;SDS011;24605;50.092;9.182;2023-08-21T01:44:51;12.65;;;5.93;;
38851;SDS011;24605;50.092;9.182;2023-08-21T01:47:18;8.93;;;5.53;;
38851;SDS011;24605;50.092;9.182;2023-08-21T01:49:44;8.90;;;5.80;;
38851;SDS011;24605;50.092;9.182;2023-08-21T01:52:11;8.95;;;5.40;;
38851;SDS011;24605;50.092;9.182;2023-08-21T01:54:37;10.80;;;5.97;;
38851;SDS011;24605;50.092;9.182;2023-08-21T01:57:04;8.98;;;6.05;;
38851;SDS011;24605;50.092;9.182;2023-08-21T01:59:32;7.78;;;5.50;;
38851;SDS011;24605;50.092;9.182;2023-08-21T02:01:58;8.77;;;5.38;;
38851;SDS011;24605;50.092;9.182;2023-08-21T02:04:25;8.32;;;5.55;;
38851;SDS011;24605;50.092;9.182;2023-08-21T02:06:51;8.10;;;5.72;;
38851;SDS011;24605;50.092;9.182;2023-08-21T02:09:18;10.02;;;6.20;;
38851;SDS011;24605;50.092;9.182;2023-08-21T02:11:44;10.05;;;6.55;;
38851;SDS011;24605;50.092;9.182;2023-08-21T02:14:11;9.77;;;6.38;;
38851;SDS011;24605;50.092;9.182;2023-08-21T02:16:39;11.27;;;6.30;;
38851;SDS011;24605;50.092;9.182;2023-08-21T02:19:05;10.30;;;6.03;;
38851;SDS011;24605;50.092;9.182;2023-08-21T02:21:33;10.85;;;6.25;;
38851;SDS011;24605;50.092;9.182;2023-08-21T02:24:01;8.82;;;6.40;;
38851;SDS011;24605;50.092;9.182;2023-08-21T02:26:27;12.63;;;6.07;;
38851;SDS011;24605;50.092;9.182;2023-08-21T02:28:54;11.27;;;6.10;;
38851;SDS011;24605;50.092;9.182;2023-08-21T02:31:20;10.60;;;6.25;;
38851;SDS011;24605;50.092;9.182;2023-08-21T02:33:48;9.90;;;6.18;;
38851;SDS011;24605;50.092;9.182;2023-08-21T02:36:15;12.07;;;6.70;;
38851;SDS011;24605;50.092;9.182;2023-08-21T02:38:41;9.85;;;7.15;;
38851;SDS011;24605;50.092;9.182;2023-08-21T02:41:08;9.95;;;6.50;;
38851;SDS011;24605;50.092;9.182;2023-08-21T02:43:35;12.13;;;6.55;;
38851;SDS011;24605;50.092;9.182;2023-08-21T02:46:01;10.25;;;6.88;;
38851;SDS011;24605;50.092;9.182;2023-08-21T02:48:28;9.80;;;6.53;;
38851;SDS011;24605;50.092;9.182;2023-08-21T02:50:56;9.50;;;6.57;;
38851;SDS011;24605;50.092;9.182;2023-08-21T02:53:22;12.55;;;6.30;;
38851;SDS011;24605;50.092;9.182;2023-08-21T02:55:49;10.45;;;6.32;;
38851;SDS011;24605;50.092;9.182;2023-08-21T02:58:15;10.77;;;6.90;;
38851;SDS011;24605;50.092;9.182;2023-08-21T03:00:42;10.50;;;7.10;;
38851;SDS011;24605;50.092;9.182;2023-08-21T03:03:08;9.43;;;6.45;;
38851;SDS011;24605;50.092;9.182;2023-08-21T03:05:36;10.13;;;6.25;;
38851;SDS011;24605;50.092;9.182;2023-08-21T03:08:04;8.40;;;6.53;;
38851;SDS011;24605;50.092;9.182;2023-08-21T03:10:31;9.88;;;6.32;;
38851;SDS011;24605;50.092;9.182;2023-08-21T03:12:58;9.57;;;6.30;;
38851;SDS011;24605;50.092;9.182;2023-08-21T03:15:25;9.90;;;6.32;;
38851;SDS011;24605;50.092;9.182;2023-08-21T03:17:52;10.13;;;6.22;;
38851;SDS011;24605;50.092;9.182;2023-08-21T03:20:18;11.13;;;6.70;;
38851;SDS011;24605;50.092;9.182;2023-08-21T03:22:45;11.40;;;7.15;;
38851;SDS011;24605;50.092;9.182;2023-08-21T03:25:14;10.75;;;7.75;;
38851;SDS011;24605;50.092;9.182;2023-08-21T03:27:41;9.93;;;7.10;;
38851;SDS011;24605;50.092;9.182;2023-08-21T03:30:09;11.27;;;7.07;;
38851;SDS011;24605;50.092;9.182;2023-08-21T03:32:39;10.18;;;7.13;;
38851;SDS011;24605;50.092;9.182;2023-08-21T03:35:06;9.50;;;7.38;;
38851;SDS011;24605;50.092;9.182;2023-08-21T03:37:33;10.55;;;7.50;;
38851;SDS011;24605;50.092;9.182;2023-08-21T03:40:01;9.73;;;7.30;;
38851;SDS011;24605;50.092;9.182;2023-08-21T03:42:29;10.05;;;6.85;;
38851;SDS011;24605;50.092;9.182;2023-08-21T03:44:56;10.93;;;7.22;;
38851;SDS011;24605;50.092;9.182;2023-08-21T03:47:23;10.77;;;6.88;;
38851;SDS011;24605;50.092;9.182;2023-08-21T03:49:49;11.52;;;7.40;;
38851;SDS011;24605;50.092;9.182;2023-08-21T03:52:16;11.07;;;7.22;;
38851;SDS011;24605;50.092;9.182;2023-08-21T03:54:42;10.57;;;7.53;;
38851;SDS011;24605;50.092;9.182;2023-08-21T03:57:09;12.70;;;7.97;;
38851;SDS011;24605;50.092;9.182;2023-08-21T03:59:37;10.43;;;6.82;;
38851;SDS011;24605;50.092;9.182;2023-08-21T04:02:03;11.57;;;7.30;;
38851;SDS011;24605;50.092;9.182;2023-08-21T04:04:30;11.27;;;7.38;;
38851;SDS011;24605;50.092;9.182;2023-08-21T04:06:56;10.40;;;7.65;;
38851;SDS011;24605;50.092;9.182;2023-08-21T04:09:23;9.60;;;7.82;;
38851;SDS011;24605;50.092;9.182;2023-08-21T04:11:50;14.30;;;7.90;;
38851;SDS011;24605;50.092;9.182;2023-08-21T04:14:16;10.63;;;7.35;;
38851;SDS011;24605;50.092;9.182;2023-08-21T04:16:44;12.23;;;7.78;;
38851;SDS011;24605;50.092;9.182;2023-08-21T04:19:10;12.93;;;7.47;;
38851;SDS011;24605;50.092;9.182;2023-08-21T04:21:37;10.48;;;7.80;;
38851;SDS011;24605;50.092;9.182;2023-08-21T04:24:03;16.02;;;8.82;;
38851;SDS011;24605;50.092;9.182;2023-08-21T04:26:30;11.35;;;8.43;;
38851;SDS011;24605;50.092;9.182;2023-08-21T04:28:57;13.02;;;8.75;;
38851;SDS011;24605;50.092;9.182;2023-08-21T04:31:23;14.52;;;9.05;;
38851;SDS011;24605;50.092;9.182;2023-08-21T04:33:51;14.13;;;9.15;;
38851;SDS011;24605;50.092;9.182;2023-08-21T04:36:17;11.00;;;8.65;;
38851;SDS011;24605;50.092;9.182;2023-08-21T04:38:44;13.55;;;8.93;;
38851;SDS011;24605;50.092;9.182;2023-08-21T04:41:10;11.45;;;9.23;;
38851;SDS011;24605;50.092;9.182;2023-08-21T04:43:37;13.43;;;8.73;;
38851;SDS011;24605;50.092;9.182;2023-08-21T04:46:03;11.85;;;9.02;;
38851;SDS011;24605;50.092;9.182;2023-08-21T04:48:30;12.15;;;8.60;;
38851;SDS011;24605;50.092;9.182;2023-08-21T04:50:58;12.02;;;8.88;;
38851;SDS011;24605;50.092;9.182;2023-08-21T04:53:24;16.45;;;9.55;;
38851;SDS011;24605;50.092;9.182;2023-08-21T04:55:51;15.20;;;9.18;;
38851;SDS011;24605;50.092;9.182;2023-08-21T04:58:17;13.32;;;9.45;;
38851;SDS011;24605;50.092;9.182;2023-08-21T05:00:44;14.93;;;9.10;;
38851;SDS011;24605;50.092;9.182;2023-08-21T05:03:11;12.63;;;9.40;;
38851;SDS011;24605;50.092;9.182;2023-08-21T05:05:37;13.35;;;9.23;;
38851;SDS011;24605;50.092;9.182;2023-08-21T05:08:05;11.95;;;8.90;;
38851;SDS011;24605;50.092;9.182;2023-08-21T05:10:32;12.00;;;9.32;;
38851;SDS011;24605;50.092;9.182;2023-08-21T05:12:58;16.33;;;10.10;;
38851;SDS011;24605;50.092;9.182;2023-08-21T05:15:25;15.43;;;9.68;;
38851;SDS011;24605;50.092;9.182;2023-08-21T05:17:51;12.95;;;9.55;;
38851;SDS011;24605;50.092;9.182;2023-08-21T05:20:18;14.82;;;9.20;;
38851;SDS011;24605;50.092;9.182;2023-08-21T05:22:44;12.68;;;9.32;;
38851;SDS011;24605;50.092;9.182;2023-08-21T05:25:12;13.75;;;8.70;;
38851;SDS011;24605;50.092;9.182;2023-08-21T05:27:40;9.93;;;8.25;;
38851;SDS011;24605;50.092;9.182;2023-08-21T05:30:07;13.48;;;9.00;;
38851;SDS011;24605;50.092;9.182;2023-08-21T05:32:35;14.18;;;8.32;;
38851;SDS011;24605;50.092;9.182;2023-08-21T05:35:02;13.50;;;8.77;;
38851;SDS011;24605;50.092;9.182;2023-08-21T05:37:29;13.73;;;8.18;;
38851;SDS011;24605;50.092;9.182;2023-08-21T05:39:56;12.07;;;8.35;;
38851;SDS011;24605;50.092;9.182;2023-08-21T05:42:24;13.23;;;8.70;;
38851;SDS011;24605;50.092;9.182;2023-08-21T05:44:50;13.50;;;8.95;;
38851;SDS011;24605;50.092;9.182;2023-08-21T05:47:17;12.73;;;8.30;;
38851;SDS011;24605;50.092;9.182;2023-08-21T05:49:43;10.63;;;8.20;;
38851;SDS011;24605;50.092;9.182;2023-08-21T05:52:10;11.38;;;8.13;;
38851;SDS011;24605;50.092;9.182;2023-08-21T05:54:36;10.23;;;8.25;;
38851;SDS011;24605;50.092;9.182;2023-08-21T05:57:03;12.77;;;9.02;;
38851;SDS011;24605;50.092;9.182;2023-08-21T05:59:31;11.32;;;8.70;;
38851;SDS011;24605;50.092;9.182;2023-08-21T06:01:58;14.52;;;8.88;;
38851;SDS011;24605;50.092;9.182;2023-08-21T06:04:25;13.48;;;8.60;;
38851;SDS011;24605;50.092;9.182;2023-08-21T06:06:52;11.27;;;8.00;;
38851;SDS011;24605;50.092;9.182;2023-08-21T06:09:19;13.98;;;9.27;;
38851;SDS011;24605;50.092;9.182;2023-08-21T06:11:45;10.68;;;8.07;;
38851;SDS011;24605;50.092;9.182;2023-08-21T06:14:12;19.25;;;9.00;;
38851;SDS011;24605;50.092;9.182;2023-08-21T06:16:39;13.70;;;9.20;;
38851;SDS011;24605;50.092;9.182;2023-08-21T06:19:06;15.20;;;9.05;;
38851;SDS011;24605;50.092;9.182;2023-08-21T06:21:32;16.65;;;9.35;;
38851;SDS011;24605;50.092;9.182;2023-08-21T06:23:59;18.55;;;9.55;;
38851;SDS011;24605;50.092;9.182;2023-08-21T06:26:25;14.15;;;8.77;;
38851;SDS011;24605;50.092;9.182;2023-08-21T06:28:52;12.27;;;9.05;;
38851;SDS011;24605;50.092;9.182;2023-08-21T06:31:18;13.63;;;9.30;;
38851;SDS011;24605;50.092;9.182;2023-08-21T06:33:46;14.90;;;9.77;;
38851;SDS011;24605;50.092;9.182;2023-08-21T06:36:13;14.60;;;9.98;;
38851;SDS011;24605;50.092;9.182;2023-08-21T06:38:39;10.88;;;8.07;;
38851;SDS011;24605;50.092;9.182;2023-08-21T06:41:06;11.00;;;8.88;;
38851;SDS011;24605;50.092;9.182;2023-08-21T06:43:32;17.13;;;9.77;;
38851;SDS011;24605;50.092;9.182;2023-08-21T06:45:59;13.13;;;8.85;;
38851;SDS011;24605;50.092;9.182;2023-08-21T06:48:25;13.77;;;9.25;;
38851;SDS011;24605;50.092;9.182;2023-08-21T06:50:53;11.77;;;8.55;;
38851;SDS011;24605;50.092;9.182;2023-08-21T06:53:19;11.82;;;9.70;;
38851;SDS011;24605;50.092;9.182;2023-08-21T06:55:46;13.48;;;9.85;;
38851;SDS011;24605;50.092;9.182;2023-08-21T06:58:12;14.45;;;10.15;;
38851;SDS011;24605;50.092;9.182;2023-08-21T07:00:39;12.95;;;10.73;;
38851;SDS011;24605;50.092;9.182;2023-08-21T07:03:05;13.07;;;10.05;;
38851;SDS011;24605;50.092;9.182;2023-08-21T07:05:32;14.45;;;9.95;;
38851;SDS011;24605;50.092;9.182;2023-08-21T07:08:00;15.80;;;10.48;;
38851;SDS011;24605;50.092;9.182;2023-08-21T07:10:27;14.00;;;9.75;;
38851;SDS011;24605;50.092;9.182;2023-08-21T07:12:54;15.27;;;10.43;;
38851;SDS011;24605;50.092;9.182;2023-08-21T07:15:21;13.57;;;9.68;;
38851;SDS011;24605;50.092;9.182;2023-08-21T07:17:48;16.48;;;9.55;;
38851;SDS011;24605;50.092;9.182;2023-08-21T07:20:15;13.77;;;9.68;;
38851;SDS011;24605;50.092;9.182;2023-08-21T07:22:42;11.73;;;9.27;;
38851;SDS011;24605;50.092;9.182;2023-08-21T07:25:10;14.57;;;9.73;;
38851;SDS011;24605;50.092;9.182;2023-08-21T07:27:36;12.43;;;9.45;;
38851;SDS011;24605;50.092;9.182;2023-08-21T07:30:03;13.10;;;9.38;;
38851;SDS011;24605;50.092;9.182;2023-08-21T07:32:30;15.55;;;10.02;;
38851;SDS011;24605;50.092;9.182;2023-08-21T07:34:57;12.43;;;9.15;;
38851;SDS011;24605;50.092;9.182;2023-08-21T07:37:23;13.77;;;10.05;;
38851;SDS011;24605;50.092;9.182;2023-08-21T07:39:50;17.50;;;10.80;;
38851;SDS011;24605;50.092;9.182;2023-08-21T07:42:18;15.85;;;10.38;;
38851;SDS011;24605;50.092;9.182;2023-08-21T07:44:44;13.90;;;10.02;;
38851;SDS011;24605;50.092;9.182;2023-08-21T07:47:11;14.57;;;9.88;;
38851;SDS011;24605;50.092;9.182;2023-08-21T07:49:37;17.13;;;9.48;;
38851;SDS011;24605;50.092;9.182;2023-08-21T07:52:04;13.63;;;9.50;;
38851;SDS011;24605;50.092;9.182;2023-08-21T07:54:31;17.27;;;9.68;;
38851;SDS011;24605;50.092;9.182;2023-08-21T07:56:57;15.00;;;10.45;;
38851;SDS011;24605;50.092;9.182;2023-08-21T07:59:25;14.57;;;10.60;;
38851;SDS011;24605;50.092;9.182;2023-08-21T08:01:52;15.45;;;10.73;;
38851;SDS011;24605;50.092;9.182;2023-08-21T08:04:18;17.33;;;10.98;;
38851;SDS011;24605;50.092;9.182;2023-08-21T08:06:45;17.42;;;10.95;;
38851;SDS011;24605;50.092;9.182;2023-08-21T08:09:12;14.50;;;10.35;;
38851;SDS011;24605;50.092;9.182;2023-08-21T08:11:38;15.98;;;11.23;;
38851;SDS011;24605;50.092;9.182;2023-08-21T08:14:05;16.38;;;10.50;;
38851;SDS011;24605;50.092;9.182;2023-08-21T08:16:32;19.10;;;10.60;;
38851;SDS011;24605;50.092;9.182;2023-08-21T08:18:59;13.88;;;9.85;;
38851;SDS011;24605;50.092;9.182;2023-08-21T08:21:25;15.95;;;10.18;;
38851;SDS011;24605;50.092;9.182;2023-08-21T08:23:52;14.15;;;11.02;;
38851;SDS011;24605;50.092;9.182;2023-08-21T08:26:18;15.18;;;9.88;;
38851;SDS011;24605;50.092;9.182;2023-08-21T08:28:45;14.52;;;9.65;;
38851;SDS011;24605;50.092;9.182;2023-08-21T08:31:14;12.85;;;10.88;;
38851;SDS011;24605;50.092;9.182;2023-08-21T08:33:42;16.08;;;10.85;;
38851;SDS011;24605;50.092;9.182;2023-08-21T08:36:09;17.75;;;11.02;;
38851;SDS011;24605;50.092;9.182;2023-08-21T08:38:35;15.55;;;10.55;;
38851;SDS011;24605;50.092;9.182;2023-08-21T08:41:02;14.82;;;11.50;;
38851;SDS011;24605;50.092;9.182;2023-08-21T08:43:36;16.50;;;11.35;;
38851;SDS011;24605;50.092;9.182;2023-08-21T08:46:06;16.25;;;11.52;;
38851;SDS011;24605;50.092;9.182;2023-08-21T08:48:34;14.10;;;11.07;;
38851;SDS011;24605;50.092;9.182;2023-08-21T08:51:02;15.15;;;11.65;;
38851;SDS011;24605;50.092;9.182;2023-08-21T08:53:29;16.45;;;11.30;;
38851;SDS011;24605;50.092;9.182;2023-08-21T08:55:56;18.23;;;11.98;;
38851;SDS011;24605;50.092;9.182;2023-08-21T08:58:23;18.58;;;11.88;;
38851;SDS011;24605;50.092;9.182;2023-08-21T09:00:50;16.00;;;12.27;;
38851;SDS011;24605;50.092;9.182;2023-08-21T09:03:17;20.70;;;13.02;;
38851;SDS011;24605;50.092;9.182;2023-08-21T09:05:43;15.07;;;10.95;;
38851;SDS011;24605;50.092;9.182;2023-08-21T09:08:12;17.75;;;12.02;;
38851;SDS011;24605;50.092;9.182;2023-08-21T09:10:39;15.02;;;12.35;;
38851;SDS011;24605;50.092;9.182;2023-08-21T09:13:11;17.48;;;12.35;;
38851;SDS011;24605;50.092;9.182;2023-08-21T09:15:40;15.90;;;11.65;;
38851;SDS011;24605;50.092;9.182;2023-08-21T09:18:08;14.73;;;12.05;;
38851;SDS011;24605;50.092;9.182;2023-08-21T09:20:35;13.70;;;10.85;;
38851;SDS011;24605;50.092;9.182;2023-08-21T09:23:02;13.63;;;10.45;;
38851;SDS011;24605;50.092;9.182;2023-08-21T09:25:34;13.35;;;10.18;;
38851;SDS011;24605;50.092;9.182;2023-08-21T09:28:03;15.82;;;9.88;;
38851;SDS011;24605;50.092;9.182;2023-08-21T09:30:43;12.23;;;9.73;;
38851;SDS011;24605;50.092;9.182;2023-08-21T09:33:10;14.43;;;10.02;;
38851;SDS011;24605;50.092;9.182;2023-08-21T09:35:37;13.38;;;10.13;;
38851;SDS011;24605;50.092;9.182;2023-08-21T09:38:04;12.85;;;9.38;;
38851;SDS011;24605;50.092;9.182;2023-08-21T09:40:31;15.18;;;9.43;;
38851;SDS011;24605;50.092;9.182;2023-08-21T09:43:00;12.85;;;9.70;;
38851;SDS011;24605;50.092;9.182;2023-08-21T09:45:29;13.50;;;9.57;;
38851;SDS011;24605;50.092;9.182;2023-08-21T09:47:57;15.73;;;9.85;;
38851;SDS011;24605;50.092;9.182;2023-08-21T09:50:24;12.48;;;8.65;;
38851;SDS011;24605;50.092;9.182;2023-08-21T09:52:51;13.90;;;9.32;;
38851;SDS011;24605;50.092;9.182;2023-08-21T09:55:19;13.32;;;9.30;;
38851;SDS011;24605;50.092;9.182;2023-08-21T09:57:47;12.35;;;9.38;;
38851;SDS011;24605;50.092;9.182;2023-08-21T10:00:23;69.00;;;15.60;;
38851;SDS011;24605;50.092;9.182;2023-08-21T10:02:50;13.02;;;8.93;;
38851;SDS011;24605;50.092;9.182;2023-08-21T10:05:17;33.38;;;10.63;;
38851;SDS011;24605;50.092;9.182;2023-08-21T10:07:45;11.25;;;8.10;;
38851;SDS011;24605;50.092;9.182;2023-08-21T10:10:14;10.65;;;8.30;;
38851;SDS011;24605;50.092;9.182;2023-08-21T10:12:42;13.15;;;8.73;;
38851;SDS011;24605;50.092;9.182;2023-08-21T10:15:09;13.10;;;8.80;;
38851;SDS011;24605;50.092;9.182;2023-08-21T10:17:37;34.63;;;10.68;;
38851;SDS011;24605;50.092;9.182;2023-08-21T10:20:04;20.65;;;9.38;;
38851;SDS011;24605;50.092;9.182;2023-08-21T10:22:37;11.27;;;7.20;;
38851;SDS011;24605;50.092;9.182;2023-08-21T10:25:10;11.18;;;7.63;;
38851;SDS011;24605;50.092;9.182;2023-08-21T10:27:40;10.07;;;7.63;;
38851;SDS011;24605;50.092;9.182;2023-08-21T10:30:12;11.05;;;7.50;;
38851;SDS011;24605;50.092;9.182;2023-08-21T10:32:47;9.50;;;7.30;;
38851;SDS011;24605;50.092;9.182;2023-08-21T10:35:14;9.13;;;6.63;;
38851;SDS011;24605;50.092;9.182;2023-08-21T10:40:34;8.07;;;5.85;;
38851;SDS011;24605;50.092;9.182;2023-08-21T10:43:00;10.68;;;5.93;;
38851;SDS011;24605;50.092;9.182;2023-08-21T10:45:28;8.70;;;5.53;;
38851;SDS011;24605;50.092;9.182;2023-08-21T10:47:57;9.02;;;5.95;;
38851;SDS011;24605;50.092;9.182;2023-08-21T10:50:24;11.93;;;6.00;;
38851;SDS011;24605;50.092;9.182;2023-08-21T10:52:51;9.60;;;5.43;;
38851;SDS011;24605;50.092;9.182;2023-08-21T10:55:19;7.63;;;4.38;;
38851;SDS011;24605;50.092;9.182;2023-08-21T10:57:46;5.65;;;4.40;;
38851;SDS011;24605;50.092;9.182;2023-08-21T11:00:14;9.63;;;4.43;;
38851;SDS011;24605;50.092;9.182;2023-08-21T11:02:43;4.57;;;3.13;;
38851;SDS011;24605;50.092;9.182;2023-08-21T11:05:13;6.70;;;3.65;;
38851;SDS011;24605;50.092;9.182;2023-08-21T11:07:41;7.25;;;3.90;;
38851;SDS011;24605;50.092;9.182;2023-08-21T11:10:10;6.53;;;4.00;;
38851;SDS011;24605;50.092;9.182;2023-08-21T11:12:38;6.80;;;3.33;;
38851;SDS011;24605;50.092;9.182;2023-08-21T11:15:15;7.50;;;3.10;;
38851;SDS011;24605;50.092;9.182;2023-08-21T11:17:42;4.32;;;2.70;;
38851;SDS011;24605;50.092;9.182;2023-08-21T11:20:09;6.70;;;3.40;;
38851;SDS011;24605;50.092;9.182;2023-08-21T11:22:37;6.03;;;3.50;;
38851;SDS011;24605;50.092;9.182;2023-08-21T11:25:04;6.75;;;3.55;;
38851;SDS011;24605;50.092;9.182;2023-08-21T11:27:31;6.00;;;3.70;;
38851;SDS011;24605;50.092;9.182;2023-08-21T11:29:58;6.55;;;4.75;;
38851;SDS011;24605;50.092;9.182;2023-08-21T11:32:26;7.72;;;4.68;;
38851;SDS011;24605;50.092;9.182;2023-08-21T11:34:53;7.28;;;4.97;;
38851;SDS011;24605;50.092;9.182;2023-08-21T11:37:22;7.60;;;4.82;;
38851;SDS011;24605;50.092;9.182;2023-08-21T11:39:51;7.10;;;5.13;;
38851;SDS011;24605;50.092;9.182;2023-08-21T11:42:19;8.55;;;5.35;;
38851;SDS011;24605;50.092;9.182;2023-08-21T11:44:49;7.50;;;4.72;;
38851;SDS011;24605;50.092;9.182;2023-08-21T11:47:18;6.32;;;4.65;;
38851;SDS011;24605;50.092;9.182;2023-08-21T11:49:48;6.28;;;4.32;;
38851;SDS011;24605;50.092;9.182;2023-08-21T11:52:18;5.70;;;3.88;;
38851;SDS011;24605;50.092;9.182;2023-08-21T11:54:47;5.88;;;3.20;;
38851;SDS011;24605;50.092;9.182;2023-08-21T11:57:16;5.55;;;3.30;;
38851;SDS011;24605;50.092;9.182;2023-08-21T11:59:43;5.10;;;3.13;;
38851;SDS011;24605;50.092;9.182;2023-08-21T12:02:16;5.63;;;3.05;;
38851;SDS011;24605;50.092;9.182;2023-08-21T12:04:43;6.45;;;3.45;;
38851;SDS011;24605;50.092;9.182;2023-08-21T12:07:10;5.15;;;2.97;;
38851;SDS011;24605;50.092;9.182;2023-08-21T12:09:38;5.95;;;3.58;;
38851;SDS011;24605;50.092;9.182;2023-08-21T12:12:04;5.95;;;3.92;;
38851;SDS011;24605;50.092;9.182;2023-08-21T12:14:33;10.35;;;4.70;;
38851;SDS011;24605;50.092;9.182;2023-08-21T12:17:04;8.65;;;4.57;;
38851;SDS011;24605;50.092;9.182;2023-08-21T12:19:30;8.60;;;4.07;;
38851;SDS011;24605;50.092;9.182;2023-08-21T12:21:57;7.32;;;4.45;;
38851;SDS011;24605;50.092;9.182;2023-08-21T12:24:23;8.35;;;4.20;;
38851;SDS011;24605;50.092;9.182;2023-08-21T12:26:50;7.70;;;4.10;;
38851;SDS011;24605;50.092;9.182;2023-08-21T12:29:17;6.82;;;3.85;;
38851;SDS011;24605;50.092;9.182;2023-08-21T12:31:45;6.65;;;3.90;;
38851;SDS011;24605;50.092;9.182;2023-08-21T12:34:11;9.07;;;4.05;;
38851;SDS011;24605;50.092;9.182;2023-08-21T12:36:38;7.20;;;3.90;;
38851;SDS011;24605;50.092;9.182;2023-08-21T12:39:05;6.28;;;3.78;;
38851;SDS011;24605;50.092;9.182;2023-08-21T12:41:33;6.03;;;3.50;;
38851;SDS011;24605;50.092;9.182;2023-08-21T12:44:01;5.63;;;3.30;;
38851;SDS011;24605;50.092;9.182;2023-08-21T12:46:28;4.97;;;3.28;;
38851;SDS011;24605;50.092;9.182;2023-08-21T12:48:56;7.00;;;3.15;;
38851;SDS011;24605;50.092;9.182;2023-08-21T12:51:24;5.05;;;3.05;;
38851;SDS011;24605;50.092;9.182;2023-08-21T12:53:50;6.35;;;3.10;;
38851;SDS011;24605;50.092;9.182;2023-08-21T12:56:17;4.78;;;2.67;;
38851;SDS011;24605;50.092;9.182;2023-08-21T12:58:44;5.32;;;3.13;;
38851;SDS011;24605;50.092;9.182;2023-08-21T13:01:11;6.03;;;2.88;;
38851;SDS011;24605;50.092;9.182;2023-08-21T13:03:38;4.78;;;2.97;;
38851;SDS011;24605;50.092;9.182;2023-08-21T13:06:06;5.35;;;3.25;;
38851;SDS011;24605;50.092;9.182;2023-08-21T13:08:32;4.65;;;2.88;;
38851;SDS011;24605;50.092;9.182;2023-08-21T13:10:59;4.75;;;3.00;;
38851;SDS011;24605;50.092;9.182;2023-08-21T13:13:25;4.35;;;2.90;;
38851;SDS011;24605;50.092;9.182;2023-08-21T13:15:52;5.00;;;2.67;;
38851;SDS011;24605;50.092;9.182;2023-08-21T13:18:20;7.00;;;2.40;;
38851;SDS011;24605;50.092;9.182;2023-08-21T13:20:46;3.83;;;2.10;;
38851;SDS011;24605;50.092;9.182;2023-08-21T13:23:14;3.20;;;1.88;;
38851;SDS011;24605;50.092;9.182;2023-08-21T13:25:40;3.55;;;1.92;;
38851;SDS011;24605;50.092;9.182;2023-08-21T13:28:07;4.20;;;1.70;;
38851;SDS011;24605;50.092;9.182;2023-08-21T13:30:34;3.92;;;2.00;;
38851;SDS011;24605;50.092;9.182;2023-08-21T13:33:00;4.03;;;1.92;;
38851;SDS011;24605;50.092;9.182;2023-08-21T13:35:28;4.55;;;1.70;;
38851;SDS011;24605;50.092;9.182;2023-08-21T13:37:55;3.33;;;1.63;;
38851;SDS011;24605;50.092;9.182;2023-08-21T13:40:23;4.35;;;1.90;;
38851;SDS011;24605;50.092;9.182;2023-08-21T13:42:49;4.10;;;1.70;;
38851;SDS011;24605;50.092;9.182;2023-08-21T13:45:17;2.97;;;2.00;;
38851;SDS011;24605;50.092;9.182;2023-08-21T13:47:46;4.53;;;2.17;;
38851;SDS011;24605;50.092;9.182;2023-08-21T13:50:13;3.88;;;1.73;;
38851;SDS011;24605;50.092;9.182;2023-08-21T13:52:41;4.32;;;1.88;;
38851;SDS011;24605;50.092;9.182;2023-08-21T13:55:08;3.88;;;1.90;;
38851;SDS011;24605;50.092;9.182;2023-08-21T13:57:36;4.65;;;2.22;;
38851;SDS011;24605;50.092;9.182;2023-08-21T14:00:04;4.10;;;2.00;;
38851;SDS011;24605;50.092;9.182;2023-08-21T14:02:33;4.57;;;1.90;;
38851;SDS011;24605;50.092;9.182;2023-08-21T14:04:59;3.20;;;1.90;;
38851;SDS011;24605;50.092;9.182;2023-08-21T14:07:26;5.57;;;2.10;;
38851;SDS011;24605;50.092;9.182;2023-08-21T14:09:53;6.13;;;2.30;;
38851;SDS011;24605;50.092;9.182;2023-08-21T14:12:19;4.07;;;2.17;;
38851;SDS011;24605;50.092;9.182;2023-08-21T14:14:47;3.60;;;1.92;;
38851;SDS011;24605;50.092;9.182;2023-08-21T14:17:14;4.95;;;2.30;;
38851;SDS011;24605;50.092;9.182;2023-08-21T14:19:40;4.25;;;2.13;;
38851;SDS011;24605;50.092;9.182;2023-08-21T14:22:07;3.38;;;2.22;;
38851;SDS011;24605;50.092;9.182;2023-08-21T14:24:33;5.43;;;2.60;;
38851;SDS011;24605;50.092;9.182;2023-08-21T14:27:00;4.35;;;2.20;;
38851;SDS011;24605;50.092;9.182;2023-08-21T14:29:26;4.47;;;2.15;;
38851;SDS011;24605;50.092;9.182;2023-08-21T14:31:54;5.63;;;2.35;;
38851;SDS011;24605;50.092;9.182;2023-08-21T14:34:22;6.30;;;2.42;;
38851;SDS011;24605;50.092;9.182;2023-08-21T14:36:49;4.03;;;2.25;;
38851;SDS011;24605;50.092;9.182;2023-08-21T14:39:15;4.50;;;2.30;;
38851;SDS011;24605;50.092;9.182;2023-08-21T14:41:42;5.20;;;2.10;;